createdAt,value
2023-05-18T00:00:35.346Z,102962.16
2023-05-18T00:03:07.846Z,102981.94
2023-05-18T00:05:36.884Z,102983.91
2023-05-18T00:08:05.586Z,102985.78
2023-05-18T00:10:33.801Z,102967.91
2023-05-18T00:13:01.950Z,102979.53
2023-05-18T00:15:30.403Z,102987.78
2023-05-18T00:17:59.020Z,102981.34
2023-05-18T00:20:29.544Z,102985.88
2023-05-18T00:22:57.960Z,102982.72
2023-05-18T00:25:26.548Z,102984.25
2023-05-18T00:27:54.685Z,102975.91
2023-05-18T00:30:24.641Z,102988.59
2023-05-18T00:32:52.925Z,102958.44
2023-05-18T00:35:21.489Z,102994.50
2023-05-18T00:37:51.134Z,102989.53
2023-05-18T00:40:19.845Z,102989.97
2023-05-18T00:42:48.165Z,102992.19
2023-05-18T00:45:16.397Z,102993.50
2023-05-18T00:47:44.637Z,102987.88
2023-05-18T00:50:13.307Z,102989.34
2023-05-18T00:52:42.382Z,102990.28
2023-05-18T00:55:14.329Z,102991.31
2023-05-18T00:57:45.490Z,102970.59
2023-05-18T01:00:15.876Z,102985.16
2023-05-18T01:02:46.108Z,102993.44
2023-05-18T01:05:14.772Z,102960.97
2023-05-18T01:07:43.883Z,102983.91
2023-05-18T01:10:18.366Z,102978.31
2023-05-18T01:12:52.318Z,102979.53
2023-05-18T01:15:26.634Z,102992.53
2023-05-18T01:18:22.452Z,102996.84
2023-05-18T01:21:00.296Z,102990.38
2023-05-18T01:23:54.919Z,102991.53
2023-05-18T01:26:30.172Z,102974.56
2023-05-18T01:29:02.285Z,102987.63
2023-05-18T01:31:31.006Z,102991.38
2023-05-18T01:33:59.660Z,102974.25
2023-05-18T01:36:28.165Z,102963.06
2023-05-18T01:39:01.474Z,102976.94
2023-05-18T01:41:32.858Z,102974.56
2023-05-18T01:44:07.247Z,102988.19
2023-05-18T01:46:44.380Z,102988.88
2023-05-18T01:49:23.300Z,102996.06
2023-05-18T01:51:52.965Z,102996.22
2023-05-18T01:54:23.856Z,102999.78
2023-05-18T01:56:57.880Z,102990.06
2023-05-18T01:59:26.754Z,102989.97
2023-05-18T02:01:59.079Z,102992.53
2023-05-18T02:04:29.519Z,102985.59
2023-05-18T02:06:57.956Z,102994.19
2023-05-18T02:09:26.511Z,102989.59
2023-05-18T02:11:56.222Z,102986.19
2023-05-18T02:14:26.580Z,102987.72
2023-05-18T02:16:54.873Z,102988.56
2023-05-18T02:19:25.344Z,102990.69
2023-05-18T02:21:55.387Z,102982.22
2023-05-18T02:24:24.794Z,102985.94
2023-05-18T02:26:53.149Z,102982.25
2023-05-18T02:29:22.820Z,102984.00
2023-05-18T02:31:51.141Z,102981.72
2023-05-18T02:34:20.093Z,102945.88
2023-05-18T02:36:48.801Z,102981.81
2023-05-18T02:39:17.285Z,102980.00
2023-05-18T02:41:45.574Z,102958.00
2023-05-18T02:44:13.903Z,102981.03
2023-05-18T02:46:43.491Z,102980.50
2023-05-18T02:49:11.921Z,102981.41
2023-05-18T02:51:40.440Z,102982.22
2023-05-18T02:54:09.033Z,102979.88
2023-05-18T02:56:41.568Z,102984.91
2023-05-18T02:59:22.335Z,102975.09
2023-05-18T03:01:52.112Z,102978.50
2023-05-18T03:04:22.003Z,102972.66
2023-05-18T03:06:54.094Z,102983.81
2023-05-18T03:09:24.078Z,102977.66
2023-05-18T03:11:55.133Z,102971.13
2023-05-18T03:14:23.349Z,102977.66
2023-05-18T03:16:54.379Z,102980.69
2023-05-18T03:19:25.036Z,102978.84
2023-05-18T03:21:53.529Z,102983.25
2023-05-18T03:24:22.139Z,102984.50
2023-05-18T03:26:54.222Z,102988.78
2023-05-18T03:29:23.267Z,102990.16
2023-05-18T03:31:54.851Z,102984.38
2023-05-18T03:34:23.200Z,102954.31
2023-05-18T03:36:52.468Z,102990.25
2023-05-18T03:39:21.410Z,102983.44
2023-05-18T03:41:49.874Z,102971.22
2023-05-18T03:44:18.405Z,102983.44
2023-05-18T03:46:46.937Z,102993.13
2023-05-18T03:49:16.648Z,102992.72
2023-05-18T03:51:44.997Z,102990.59
2023-05-18T03:54:13.245Z,102970.06
2023-05-18T03:56:42.336Z,102987.72
2023-05-18T03:59:10.535Z,102992.94
2023-05-18T04:01:42.217Z,102989.91
2023-05-18T04:04:17.827Z,102991.75
2023-05-18T04:06:49.323Z,102980.72
2023-05-18T04:09:18.451Z,102965.53
2023-05-18T04:11:47.012Z,102984.06
2023-05-18T04:14:17.141Z,102989.84
2023-05-18T04:16:46.293Z,102954.31
2023-05-18T04:19:16.081Z,102988.25
2023-05-18T04:21:44.423Z,102971.13
2023-05-18T04:24:15.111Z,102992.94
2023-05-18T04:26:43.601Z,102992.91
2023-05-18T04:29:13.468Z,102996.56
2023-05-18T04:31:44.767Z,102971.38
2023-05-18T04:34:14.249Z,102998.34
2023-05-18T04:36:44.363Z,102982.75
2023-05-18T04:39:14.388Z,103000.41
2023-05-18T04:41:42.630Z,103008.81
2023-05-18T04:44:10.914Z,102986.97
2023-05-18T04:46:40.853Z,103006.59
2023-05-18T04:49:11.813Z,103021.09
2023-05-18T04:51:42.021Z,103017.41
2023-05-18T04:54:10.496Z,103013.03
2023-05-18T04:56:40.078Z,103013.03
2023-05-18T04:59:10.818Z,103009.69
2023-05-18T05:01:39.075Z,103017.31
2023-05-18T05:04:07.457Z,103015.94
2023-05-18T05:06:35.870Z,102999.31
2023-05-18T05:09:04.854Z,103019.47
2023-05-18T05:11:33.168Z,103022.38
2023-05-18T05:14:03.808Z,102999.06
2023-05-18T05:16:32.507Z,103022.66
2023-05-18T05:19:00.867Z,103020.56
2023-05-18T05:21:29.280Z,102997.59
2023-05-18T05:23:57.526Z,103013.78
2023-05-18T05:26:27.714Z,102991.69
2023-05-18T05:28:55.930Z,102947.81
2023-05-18T05:31:26.270Z,102973.50
2023-05-18T05:33:54.668Z,102983.53
2023-05-18T05:36:22.896Z,102989.88
2023-05-18T05:38:51.474Z,103015.31
2023-05-18T05:41:19.700Z,102984.63
2023-05-18T05:43:47.893Z,103023.56
2023-05-18T05:46:16.137Z,103020.81
2023-05-18T05:48:45.959Z,103021.59
2023-05-18T05:51:14.181Z,103019.28
2023-05-18T05:53:44.042Z,103030.59
2023-05-18T05:56:12.424Z,103029.63
2023-05-18T05:58:43.229Z,103008.06
2023-05-18T06:01:11.733Z,103013.41
2023-05-18T06:03:40.433Z,103026.00
2023-05-18T06:06:11.420Z,103030.31
2023-05-18T06:08:39.643Z,102993.34
2023-05-18T06:11:10.783Z,103020.47
2023-05-18T06:13:39.920Z,102979.28
2023-05-18T06:16:09.517Z,103025.78
2023-05-18T06:18:38.286Z,103029.78
2023-05-18T06:21:07.388Z,103014.94
2023-05-18T06:23:39.522Z,103024.66
2023-05-18T06:26:22.132Z,103013.34
2023-05-18T06:29:05.673Z,103039.53
2023-05-18T06:31:44.665Z,103017.28
2023-05-18T06:34:19.232Z,103001.50
2023-05-18T06:36:47.567Z,103031.16
2023-05-18T06:39:17.418Z,103042.81
2023-05-18T06:41:46.176Z,103050.81
2023-05-18T06:44:22.564Z,103045.25
2023-05-18T06:47:05.128Z,103057.38
2023-05-18T06:49:33.578Z,103036.22
2023-05-18T06:52:01.886Z,103052.47
2023-05-18T06:54:31.410Z,103043.41
2023-05-18T06:57:00.466Z,103045.22
2023-05-18T06:59:28.943Z,103059.63
2023-05-18T07:01:57.507Z,103056.88
2023-05-18T07:04:26.470Z,103032.88
2023-05-18T07:06:55.882Z,103047.50
2023-05-18T07:09:24.461Z,103030.09
2023-05-18T07:11:54.125Z,103053.22
2023-05-18T07:14:22.401Z,103045.72
2023-05-18T07:16:50.617Z,103061.34
2023-05-18T07:19:18.912Z,103061.56
2023-05-18T07:21:47.125Z,103053.75
2023-05-18T07:24:15.948Z,103059.59
2023-05-18T07:26:44.430Z,103062.84
2023-05-18T07:29:14.089Z,103066.22
2023-05-18T07:31:42.356Z,103067.88
2023-05-18T07:34:10.751Z,103060.72
2023-05-18T07:36:39.015Z,103041.66
2023-05-18T07:39:07.282Z,103052.50
2023-05-18T07:41:36.248Z,103062.94
2023-05-18T07:44:04.460Z,103064.97
2023-05-18T07:46:34.059Z,103051.22
2023-05-18T07:49:02.340Z,103069.91
2023-05-18T07:51:30.642Z,103051.00
2023-05-18T07:53:58.875Z,103061.81
2023-05-18T07:56:27.061Z,103064.63
2023-05-18T07:58:55.284Z,103069.28
2023-05-18T08:01:27.448Z,103070.44
2023-05-18T08:03:57.346Z,103063.59
2023-05-18T08:06:25.691Z,103075.53
2023-05-18T08:08:54.280Z,103074.97
2023-05-18T08:11:22.556Z,103057.63
2023-05-18T08:13:51.497Z,103081.63
2023-05-18T08:16:19.950Z,103064.38
2023-05-18T08:18:48.223Z,103076.22
2023-05-18T08:21:18.409Z,103055.31
2023-05-18T08:23:47.758Z,103053.97
2023-05-18T08:26:16.013Z,103072.47
2023-05-18T08:28:45.278Z,103049.78
2023-05-18T08:31:13.548Z,103062.63
2023-05-18T08:33:42.042Z,103069.25
2023-05-18T08:36:11.164Z,103039.09
2023-05-18T08:38:40.749Z,103068.56
2023-05-18T08:41:21.143Z,103057.69
2023-05-18T08:43:55.080Z,103070.59
2023-05-18T08:46:31.970Z,103074.50
2023-05-18T08:49:02.081Z,103069.75
2023-05-18T08:51:36.703Z,103074.63
2023-05-18T08:54:07.291Z,103062.31
2023-05-18T08:56:35.819Z,103044.16
2023-05-18T08:59:08.051Z,103045.50
2023-05-18T09:01:37.131Z,103014.81
2023-05-18T09:04:06.452Z,103052.81
2023-05-18T09:06:35.875Z,103013.13
2023-05-18T09:09:06.559Z,103046.31
2023-05-18T09:11:35.924Z,103042.75
2023-05-18T09:14:04.217Z,103032.47
2023-05-18T09:16:33.322Z,103013.66
2023-05-18T09:19:01.945Z,103045.28
2023-05-18T09:21:33.464Z,103009.00
2023-05-18T09:24:02.113Z,102982.41
2023-05-18T09:26:31.963Z,103033.75
2023-05-18T09:29:00.604Z,103035.31
2023-05-18T09:31:31.589Z,103026.91
2023-05-18T09:34:01.261Z,103027.94
2023-05-18T09:36:30.449Z,102990.56
2023-05-18T09:38:58.803Z,103038.34
2023-05-18T09:41:28.712Z,103038.47
2023-05-18T09:43:58.312Z,103037.44
2023-05-18T09:46:26.787Z,103035.72
2023-05-18T09:48:56.394Z,103029.88
2023-05-18T09:51:25.754Z,103019.28
2023-05-18T09:53:59.076Z,103025.13
2023-05-18T09:56:28.585Z,103009.44
2023-05-18T09:59:09.058Z,103034.09
2023-05-18T10:01:37.398Z,103027.91
2023-05-18T10:04:07.334Z,103024.47
2023-05-18T10:06:36.072Z,103023.41
2023-05-18T10:09:05.663Z,103026.69
2023-05-18T10:11:34.639Z,103014.50
2023-05-18T10:14:04.293Z,103016.63
2023-05-18T10:16:33.717Z,103020.94
2023-05-18T10:19:03.443Z,103015.53
2023-05-18T10:21:35.009Z,103009.16
2023-05-18T10:24:08.759Z,103001.66
2023-05-18T10:26:40.142Z,102983.50
2023-05-18T10:29:10.569Z,103001.81
2023-05-18T10:31:40.210Z,103007.25
2023-05-18T10:34:11.122Z,102994.47
2023-05-18T10:36:39.659Z,102992.78
2023-05-18T10:39:11.268Z,102977.69
2023-05-18T10:41:41.084Z,102993.19
2023-05-18T10:44:11.568Z,102988.00
2023-05-18T10:46:41.716Z,102993.53
2023-05-18T10:51:44.691Z,102991.78
2023-05-18T10:54:15.553Z,102983.56
2023-05-18T10:56:47.792Z,102975.31
2023-05-18T10:59:18.887Z,102986.59
2023-05-18T11:01:48.868Z,102977.00
2023-05-18T11:04:17.503Z,102974.19
2023-05-18T11:06:56.836Z,102975.63
2023-05-18T11:09:26.728Z,102968.94
2023-05-18T11:11:58.803Z,102975.38
2023-05-18T11:14:30.147Z,102968.06
2023-05-18T11:17:18.029Z,102968.19
2023-05-18T11:20:17.367Z,102955.38
2023-05-18T11:22:51.706Z,102948.13
2023-05-18T11:25:44.217Z,102956.84
2023-05-18T11:28:14.625Z,102951.53
2023-05-18T11:30:53.539Z,102960.56
2023-05-18T11:33:30.075Z,102956.03
2023-05-18T11:36:04.397Z,102941.16
2023-05-18T11:38:54.260Z,102948.34
2023-05-18T11:41:34.718Z,102937.09
2023-05-18T11:44:21.370Z,102966.16
2023-05-18T11:46:56.559Z,102945.53
2023-05-18T11:49:26.531Z,102928.41
2023-05-18T11:52:19.314Z,102940.97
2023-05-18T11:54:52.351Z,102929.72
2023-05-18T11:57:24.873Z,102932.34
2023-05-18T11:59:58.066Z,102926.53
2023-05-18T12:02:32.342Z,102928.56
2023-05-18T12:05:02.364Z,102913.53
2023-05-18T12:07:32.451Z,102917.25
2023-05-18T12:10:03.046Z,102939.84
2023-05-18T12:12:31.729Z,102938.25
2023-05-18T12:15:01.908Z,102925.59
2023-05-18T12:17:41.360Z,102909.19
2023-05-18T12:20:13.249Z,102924.47
2023-05-18T12:22:42.371Z,102942.00
2023-05-18T12:25:12.169Z,102927.84
2023-05-18T12:27:41.386Z,102923.72
2023-05-18T12:30:13.836Z,102885.41
2023-05-18T12:32:49.222Z,102923.94
2023-05-18T12:35:17.983Z,102907.69
2023-05-18T12:37:47.432Z,102896.66
2023-05-18T12:40:18.439Z,102894.75
2023-05-18T12:42:54.105Z,102915.00
2023-05-18T12:45:26.697Z,102891.75
2023-05-18T12:47:57.421Z,102882.91
2023-05-18T12:50:26.911Z,102879.56
2023-05-18T12:52:56.957Z,102894.56
2023-05-18T12:55:26.575Z,102868.94
2023-05-18T12:58:03.129Z,102871.47
2023-05-18T13:00:34.778Z,102903.78
2023-05-18T13:03:15.324Z,102904.81
2023-05-18T13:05:45.746Z,102898.91
2023-05-18T13:08:17.223Z,102868.41
2023-05-18T13:10:47.036Z,102896.19
2023-05-18T13:13:19.115Z,102884.25
2023-05-18T13:15:47.675Z,102881.63
2023-05-18T13:18:17.220Z,102880.69
2023-05-18T13:20:51.110Z,102864.38
2023-05-18T13:23:22.528Z,102854.00
2023-05-18T13:25:52.033Z,102878.75
2023-05-18T13:28:22.708Z,102875.31
2023-05-18T13:30:51.348Z,102874.00
2023-05-18T13:33:21.735Z,102871.41
2023-05-18T13:35:50.994Z,102867.34
2023-05-18T13:38:19.403Z,102873.22
2023-05-18T13:40:47.646Z,102878.34
2023-05-18T13:43:16.161Z,102868.13
2023-05-18T13:45:44.913Z,102859.81
2023-05-18T13:48:14.191Z,102853.16
2023-05-18T13:50:43.970Z,102859.25
2023-05-18T13:53:12.367Z,102859.91
2023-05-18T13:55:40.704Z,102857.84
2023-05-18T13:58:09.152Z,102866.31
2023-05-18T14:00:38.030Z,102848.97
2023-05-18T14:03:06.390Z,102854.50
2023-05-18T14:05:34.833Z,102854.50
2023-05-18T14:08:04.679Z,102814.03
2023-05-18T14:10:33.091Z,102837.41
2023-05-18T14:13:01.696Z,102842.06
2023-05-18T14:15:29.902Z,102835.50
2023-05-18T14:17:58.297Z,102823.69
2023-05-18T14:20:26.528Z,102827.56
2023-05-18T14:22:54.819Z,102814.16
2023-05-18T14:25:24.420Z,102821.88
2023-05-18T14:27:52.602Z,102827.19
2023-05-18T14:30:20.887Z,102801.53
2023-05-18T14:32:49.195Z,102814.38
2023-05-18T14:35:18.467Z,102791.94
2023-05-18T14:37:46.663Z,102814.72
2023-05-18T14:40:15.224Z,102793.41
2023-05-18T14:42:44.894Z,102803.31
2023-05-18T14:45:13.256Z,102813.66
2023-05-18T14:47:41.591Z,102781.50
2023-05-18T14:50:10.746Z,102804.03
2023-05-18T14:52:39.117Z,102809.03
2023-05-18T14:55:08.394Z,102808.50
2023-05-18T14:57:36.625Z,102804.75
2023-05-18T15:00:07.953Z,102804.81
2023-05-18T15:02:36.296Z,102807.63
2023-05-18T15:05:05.166Z,102801.78
2023-05-18T15:07:33.417Z,102796.31
2023-05-18T15:10:01.950Z,102806.59
2023-05-18T15:12:30.217Z,102804.72
2023-05-18T15:14:59.015Z,102800.72
2023-05-18T15:17:28.713Z,102800.38
2023-05-18T15:19:56.997Z,102794.44
2023-05-18T15:22:25.325Z,102785.28
2023-05-18T15:24:53.612Z,102795.59
2023-05-18T15:27:21.992Z,102744.28
2023-05-18T15:29:50.249Z,102795.97
2023-05-18T15:32:18.424Z,102788.31
2023-05-18T15:34:48.109Z,102784.78
2023-05-18T15:37:16.374Z,102783.72
2023-05-18T15:39:44.584Z,102790.22
2023-05-18T15:42:12.972Z,102765.34
2023-05-18T15:44:41.270Z,102782.53
2023-05-18T15:47:09.547Z,102784.59
2023-05-18T15:49:37.729Z,102784.44
2023-05-18T15:52:08.500Z,102772.81
2023-05-18T15:54:36.810Z,102776.28
2023-05-18T15:57:06.097Z,102761.75
2023-05-18T15:59:34.333Z,102761.00
2023-05-18T16:02:02.992Z,102770.19
2023-05-18T16:04:31.334Z,102764.06
2023-05-18T16:06:59.612Z,102760.06
2023-05-18T16:09:29.275Z,102762.03
2023-05-18T16:11:57.581Z,102765.50
2023-05-18T16:14:25.897Z,102766.72
2023-05-18T16:16:54.251Z,102760.81
2023-05-18T16:19:22.606Z,102768.13
2023-05-18T16:21:50.974Z,102761.06
2023-05-18T16:24:19.242Z,102761.53
2023-05-18T16:26:48.754Z,102760.19
2023-05-18T16:29:17.040Z,102754.78
2023-05-18T16:31:45.596Z,102752.88
2023-05-18T16:34:13.824Z,102729.81
2023-05-18T16:36:42.044Z,102754.84
2023-05-18T16:39:10.275Z,102753.13
2023-05-18T16:41:38.458Z,102749.78
2023-05-18T16:44:08.129Z,102753.72
2023-05-18T16:46:36.435Z,102754.63
2023-05-18T16:49:05.022Z,102739.25
2023-05-18T16:51:33.565Z,102744.50
2023-05-18T16:54:01.743Z,102736.41
2023-05-18T16:56:30.016Z,102751.59
2023-05-18T16:58:58.254Z,102750.41
2023-05-18T17:01:29.222Z,102744.88
2023-05-18T17:03:58.526Z,102740.38
2023-05-18T17:06:27.222Z,102746.97
2023-05-18T17:08:58.574Z,102739.72
2023-05-18T17:11:27.798Z,102745.47
2023-05-18T17:13:57.563Z,102743.84
2023-05-18T17:16:28.567Z,102750.78
2023-05-18T17:18:57.718Z,102710.72
2023-05-18T17:21:28.266Z,102742.78
2023-05-18T17:23:56.812Z,102740.75
2023-05-18T17:26:30.365Z,102746.19
2023-05-18T17:28:58.683Z,102755.34
2023-05-18T17:31:28.679Z,102751.84
2023-05-18T17:33:56.925Z,102755.22
2023-05-18T17:36:25.618Z,102752.19
2023-05-18T17:38:53.966Z,102752.00
2023-05-18T17:41:22.585Z,102750.13
2023-05-18T17:43:50.775Z,102746.94
2023-05-18T17:46:19.182Z,102755.22
2023-05-18T17:48:48.987Z,102728.03
2023-05-18T17:51:17.382Z,102753.69
2023-05-18T17:53:46.134Z,102745.78
2023-05-18T17:56:14.416Z,102754.03
2023-05-18T17:58:42.829Z,102738.31
2023-05-18T18:01:12.227Z,102750.63
2023-05-18T18:03:41.920Z,102733.75
2023-05-18T18:06:11.804Z,102751.69
2023-05-18T18:08:40.168Z,102751.66
2023-05-18T18:11:09.574Z,102736.06
2023-05-18T18:13:38.184Z,102754.94
2023-05-18T18:16:07.304Z,102752.66
2023-05-18T18:18:37.053Z,102758.72
2023-05-18T18:21:06.443Z,102760.72
2023-05-18T18:23:37.066Z,102739.06
2023-05-18T18:26:06.712Z,102729.91
2023-05-18T18:28:36.121Z,102755.53
2023-05-18T18:31:04.771Z,102735.66
2023-05-18T18:33:33.605Z,102758.72
2023-05-18T18:36:02.340Z,102757.13
2023-05-18T18:38:30.533Z,102757.78
2023-05-18T18:41:04.067Z,102771.53
2023-05-18T18:43:32.796Z,102760.47
2023-05-18T18:46:01.086Z,102769.03
2023-05-18T18:48:29.377Z,102766.66
2023-05-18T18:50:57.640Z,102771.59
2023-05-18T18:53:26.129Z,102775.34
2023-05-18T18:55:54.427Z,102774.56
2023-05-18T18:58:24.555Z,102772.34
2023-05-18T19:00:52.830Z,102772.72
2023-05-18T19:03:22.012Z,102773.91
2023-05-18T19:05:51.442Z,102744.72
2023-05-18T19:08:19.722Z,102777.06
2023-05-18T19:10:47.909Z,102781.91
2023-05-18T19:13:16.100Z,102771.22
2023-05-18T19:15:47.083Z,102785.25
2023-05-18T19:18:15.455Z,102782.31
2023-05-18T19:20:43.744Z,102788.16
2023-05-18T19:23:12.009Z,102785.72
2023-05-18T19:25:40.358Z,102787.72
2023-05-18T19:28:08.643Z,102783.47
2023-05-18T19:30:36.834Z,102787.84
2023-05-18T19:33:06.447Z,102787.97
2023-05-18T19:35:34.822Z,102786.56
2023-05-18T19:38:03.269Z,102787.09
2023-05-18T19:40:31.502Z,102791.16
2023-05-18T19:43:01.519Z,102799.66
2023-05-18T19:45:30.385Z,102800.56
2023-05-18T19:47:58.905Z,102797.34
2023-05-18T19:50:28.486Z,102794.84
2023-05-18T19:52:56.912Z,102787.56
2023-05-18T19:55:25.446Z,102801.13
2023-05-18T19:57:53.877Z,102799.38
2023-05-18T20:00:22.033Z,102803.50
2023-05-18T20:02:50.224Z,102803.56
2023-05-18T20:05:19.170Z,102796.66
2023-05-18T20:07:48.702Z,102809.88
2023-05-18T20:10:18.454Z,102806.25
2023-05-18T20:12:46.627Z,102805.66
2023-05-18T20:15:14.951Z,102812.69
2023-05-18T20:17:43.642Z,102815.19
2023-05-18T20:20:12.441Z,102794.38
2023-05-18T20:22:40.849Z,102796.84
2023-05-18T20:25:12.113Z,102827.00
2023-05-18T20:27:40.398Z,102825.22
2023-05-18T20:30:10.159Z,102830.94
2023-05-18T20:32:38.546Z,102829.09
2023-05-18T20:35:07.704Z,102834.84
2023-05-18T20:37:35.959Z,102834.84
2023-05-18T20:40:09.066Z,102806.38
2023-05-18T20:42:40.928Z,102831.41
2023-05-18T20:45:10.386Z,102805.13
2023-05-18T20:47:38.817Z,102841.50
2023-05-18T20:50:09.114Z,102819.69
2023-05-18T20:52:37.359Z,102833.19
2023-05-18T20:55:06.324Z,102820.25
2023-05-18T20:57:34.903Z,102833.03
2023-05-18T21:00:05.212Z,102837.38
2023-05-18T21:02:33.844Z,102838.16
2023-05-18T21:05:02.740Z,102840.13
2023-05-18T21:07:31.913Z,102839.78
2023-05-18T21:10:00.435Z,102838.41
2023-05-18T21:12:28.679Z,102836.31
2023-05-18T21:14:57.347Z,102839.94
2023-05-18T21:17:27.026Z,102847.47
2023-05-18T21:19:55.302Z,102844.03
2023-05-18T21:22:23.457Z,102848.63
2023-05-18T21:24:51.696Z,102837.44
2023-05-18T21:27:20.008Z,102842.16
2023-05-18T21:29:48.236Z,102845.78
2023-05-18T21:32:16.598Z,102813.28
2023-05-18T21:34:46.339Z,102845.72
2023-05-18T21:37:14.716Z,102815.16
2023-05-18T21:39:44.063Z,102843.19
2023-05-18T21:42:12.245Z,102843.69
2023-05-18T21:44:40.474Z,102850.88
2023-05-18T21:47:08.775Z,102838.78
2023-05-18T21:49:36.932Z,102840.22
2023-05-18T21:52:06.772Z,102835.56
2023-05-18T21:54:35.493Z,102841.47
2023-05-18T21:57:04.135Z,102839.88
2023-05-18T21:59:32.383Z,102834.03
2023-05-18T22:02:00.923Z,102824.09
2023-05-18T22:04:29.248Z,102834.56
2023-05-18T22:06:57.492Z,102836.19
2023-05-18T22:09:27.484Z,102816.03
2023-05-18T22:11:55.762Z,102821.50
2023-05-18T22:14:24.006Z,102824.59
2023-05-18T22:16:52.362Z,102815.53
2023-05-18T22:19:20.663Z,102824.81
2023-05-18T22:21:49.112Z,102850.81
2023-05-18T22:24:17.665Z,102855.53
2023-05-18T22:26:47.293Z,102853.47
2023-05-18T22:29:15.533Z,102857.00
2023-05-18T22:31:43.848Z,102849.22
2023-05-18T22:34:12.146Z,102831.09
2023-05-18T22:36:40.601Z,102826.81
2023-05-18T22:39:10.957Z,102850.38
2023-05-18T22:41:39.178Z,102844.00
2023-05-18T22:44:08.690Z,102853.59
2023-05-18T22:46:37.155Z,102843.78
2023-05-18T22:49:06.629Z,102836.53
2023-05-18T22:51:35.717Z,102851.50
2023-05-18T22:54:03.989Z,102831.38
2023-05-18T22:56:32.319Z,102809.69
2023-05-18T22:59:01.089Z,102820.28
2023-05-18T23:01:31.301Z,102847.16
2023-05-18T23:04:00.497Z,102819.31
2023-05-18T23:06:31.668Z,102850.88
2023-05-18T23:09:00.767Z,102808.63
2023-05-18T23:11:31.022Z,102845.09
2023-05-18T23:14:02.579Z,102848.19
2023-05-18T23:16:32.386Z,102849.91
2023-05-18T23:19:01.747Z,102845.22
2023-05-18T23:21:31.065Z,102803.72
2023-05-18T23:23:59.944Z,102846.19
2023-05-18T23:26:28.293Z,102842.03
2023-05-18T23:28:56.580Z,102851.56
2023-05-18T23:31:24.990Z,102835.66
2023-05-18T23:33:55.649Z,102851.97
2023-05-18T23:36:27.409Z,102827.94
2023-05-18T23:38:58.956Z,102847.91
2023-05-18T23:41:28.775Z,102846.06
2023-05-18T23:43:57.942Z,102847.97
2023-05-18T23:46:27.251Z,102808.38
2023-05-18T23:48:59.599Z,102832.09
2023-05-18T23:51:33.044Z,102849.19
2023-05-18T23:54:03.999Z,102844.72
2023-05-18T23:56:34.209Z,102851.28
2023-05-18T23:59:03.605Z,102803.63
